Swift Ace — C6XB8 — position and weather

sailwx.info

Track history (hours):
 
Tides and Currents Weather Stations Pressure Air Temp Water Temp Dewpoint Dewpoint Depression Visibility Wind Speed Wind Dir Waves Ship Positions

Swift Ace

Last reported at 2015-Aug-31 23:10 UTC. Time now 2015-Sep-03 15:11 UTC.
Position N 35°21' E 141°18'.

Length 200 m; draft 8.6 m.

Type: Cargo ship. MMSI: 310968322.

Date/timePositionNaut miles runAvg speedWind from/ knotsBaromVisibWave heightAir tempDewpointWater temp
2015-Aug-31 23:10N 35°21' E 141°18'1317.4
2015-Aug-31 22:26N 35°15' E 141°03'1517.1
2015-Aug-31 21:33N 35°08' E 140°47'1817.2
2015-Aug-31 20:30N 35°01' E 140°27'1515.7
2015-Aug-31 19:33N 34°54' E 140°10'1913.7
2015-Aug-31 18:12N 34°50' E 139°48'913.7
2015-Aug-31 17:33N 34°56' E 139°41'1514.6
2015-Aug-31 16:33N 35°10' E 139°45'1110.9
2015-Aug-31 15:33N 35°21' E 139°42'7 6.8
2015-Aug-31 14:34N 35°27' E 139°41'0 0.0
2015-Aug-31 13:34N 35°27' E 139°41'0 0.0
2015-Aug-31 12:33N 35°27' E 139°41'0 0.0
2015-Aug-31 11:30N 35°27' E 139°41'0 0.0
2015-Aug-31 10:34N 35°27' E 139°41'0 0.0
2015-Aug-31 09:34N 35°27' E 139°41'0 0.0
2015-Aug-31 08:33N 35°27' E 139°41'0 0.0
2015-Aug-31 07:31N 35°27' E 139°41'0 0.0
2015-Aug-31 06:33N 35°27' E 139°41'0 0.0
2015-Aug-31 05:34N 35°27' E 139°41'0 0.0
2015-Aug-31 04:34N 35°27' E 139°41'0 0.0
2015-Aug-31 03:34N 35°27' E 139°41'0 0.0
2015-Aug-31 02:31N 35°27' E 139°41'0 0.0
2015-Aug-31 01:31N 35°27' E 139°41'0 0.0
2015-Aug-31 00:34N 35°27' E 139°41'0 0.0
2015-Aug-30 23:33N 35°27' E 139°41'0 0.0
2015-Aug-30 22:33N 35°27' E 139°41'3 2.6
2015-Aug-30 21:33N 35°26' E 139°43'10 9.8
2015-Aug-30 20:33N 35°16' E 139°46'1010.3
2015-Aug-30 19:33N 35°06' E 139°45'1716.4
2015-Aug-30 18:33N 34°50' E 139°40'9 3.9
2015-Aug-30 16:12N 34°41' E 139°36'1 1.1
2015-Aug-30 15:31N 34°42' E 139°37'1 1.1
2015-Aug-30 14:33N 34°42' E 139°38'1 1.1
2015-Aug-30 13:33N 34°42' E 139°40'1 1.1
2015-Aug-30 12:33N 34°43' E 139°41'1 0.9
2015-Aug-30 11:33N 34°44' E 139°42'1 1.4
2015-Aug-30 10:33N 34°43' E 139°40'  
2015-Aug-27 11:07N 33°56' E 134°56'1017.6
2015-Aug-27 10:34N 34°06' E 134°57'1110.8
2015-Aug-27 09:33N 34°16' E 134°59'1615.5
2015-Aug-27 08:31N 34°30' E 135°09'1310.6
2015-Aug-27 07:15N 34°41' E 135°17'0 0.1
2015-Aug-27 03:25N 34°42' E 135°17'0 0.0
2015-Aug-27 02:25N 34°42' E 135°17'0 0.0
2015-Aug-27 01:31N 34°42' E 135°17'0 0.0
2015-Aug-27 00:31N 34°42' E 135°17'0 0.0
2015-Aug-26 23:31N 34°42' E 135°17'0 0.0
2015-Aug-26 22:31N 34°42' E 135°17'4 4.3
2015-Aug-26 21:33N 34°38' E 135°19'1313.0
2015-Aug-26 20:34N 34°27' E 135°10'1615.9
2015-Aug-26 19:33N 34°13' E 134°60'7 6.9
2015-Aug-26 18:33N 34°06' E 134°60'1010.4
2015-Aug-26 17:33N 33°56' E 134°60'  
2015-Aug-23 12:33N 34°54' E 139°38'1817.8
2015-Aug-23 11:34N 35°11' E 139°46'1111.3
2015-Aug-23 10:33N 35°22' E 139°42'6 5.5
2015-Aug-23 09:29N 35°27' E 139°41'0 0.0
2015-Aug-23 08:32N 35°27' E 139°41'0 0.0
2015-Aug-23 07:32N 35°27' E 139°41'0 0.0
2015-Aug-23 06:32N 35°27' E 139°41'0 0.0
2015-Aug-23 05:32N 35°27' E 139°41'2 1.8
2015-Aug-23 04:33N 35°26' E 139°42'8 7.6
2015-Aug-23 03:33N 35°19' E 139°39'0 0.3
2015-Aug-23 02:33N 35°19' E 139°39'0 0.0
2015-Aug-23 01:33N 35°19' E 139°39'0 0.0
2015-Aug-23 00:33N 35°19' E 139°39'0 0.0
2015-Aug-22 23:33N 35°19' E 139°39'0 0.0
2015-Aug-22 22:33N 35°19' E 139°39'5 5.3
2015-Aug-22 21:33N 35°17' E 139°45'1110.7
2015-Aug-22 20:33N 35°07' E 139°46'1212.2
2015-Aug-22 19:33N 34°55' E 139°41'1212.3
2015-Aug-22 18:33N 34°45' E 139°34'1712.3
2015-Aug-22 17:11N 34°36' E 139°16'913.7
2015-Aug-22 16:32N 34°33' E 139°06'  
Track history (hours):
 
Tides and Currents Weather Stations Pressure Air Temp Water Temp Dewpoint Dewpoint Depression Visibility Wind Speed Wind Dir Waves Ship Positions

Swift Ace

Last reported at 2015-Aug-31 23:10 UTC. Time now 2015-Sep-03 15:11 UTC.
Position N 35°21' E 141°18'.

Length 200 m; draft 8.6 m.

Type: Cargo ship. MMSI: 310968322.

Date/timePositionNaut miles runAvg speedWind from/ knotsBaromVisibWave heightAir tempDewpointWater temp
2015-Aug-31 23:10N 35°21' E 141°18'1317.4
2015-Aug-31 22:26N 35°15' E 141°03'1517.1
2015-Aug-31 21:33N 35°08' E 140°47'1817.2
2015-Aug-31 20:30N 35°01' E 140°27'1515.7
2015-Aug-31 19:33N 34°54' E 140°10'1913.7
2015-Aug-31 18:12N 34°50' E 139°48'913.7
2015-Aug-31 17:33N 34°56' E 139°41'1514.6
2015-Aug-31 16:33N 35°10' E 139°45'1110.9
2015-Aug-31 15:33N 35°21' E 139°42'7 6.8
2015-Aug-31 14:34N 35°27' E 139°41'0 0.0
2015-Aug-31 13:34N 35°27' E 139°41'0 0.0
2015-Aug-31 12:33N 35°27' E 139°41'0 0.0
2015-Aug-31 11:30N 35°27' E 139°41'0 0.0
2015-Aug-31 10:34N 35°27' E 139°41'0 0.0
2015-Aug-31 09:34N 35°27' E 139°41'0 0.0
2015-Aug-31 08:33N 35°27' E 139°41'0 0.0
2015-Aug-31 07:31N 35°27' E 139°41'0 0.0
2015-Aug-31 06:33N 35°27' E 139°41'0 0.0
2015-Aug-31 05:34N 35°27' E 139°41'0 0.0
2015-Aug-31 04:34N 35°27' E 139°41'0 0.0
2015-Aug-31 03:34N 35°27' E 139°41'0 0.0
2015-Aug-31 02:31N 35°27' E 139°41'0 0.0
2015-Aug-31 01:31N 35°27' E 139°41'0 0.0
2015-Aug-31 00:34N 35°27' E 139°41'0 0.0
2015-Aug-30 23:33N 35°27' E 139°41'0 0.0
2015-Aug-30 22:33N 35°27' E 139°41'3 2.6
2015-Aug-30 21:33N 35°26' E 139°43'10 9.8
2015-Aug-30 20:33N 35°16' E 139°46'1010.3
2015-Aug-30 19:33N 35°06' E 139°45'1716.4
2015-Aug-30 18:33N 34°50' E 139°40'9 3.9
2015-Aug-30 16:12N 34°41' E 139°36'1 1.1
2015-Aug-30 15:31N 34°42' E 139°37'1 1.1
2015-Aug-30 14:33N 34°42' E 139°38'1 1.1
2015-Aug-30 13:33N 34°42' E 139°40'1 1.1
2015-Aug-30 12:33N 34°43' E 139°41'1 0.9
2015-Aug-30 11:33N 34°44' E 139°42'1 1.4
2015-Aug-30 10:33N 34°43' E 139°40'  
2015-Aug-27 11:07N 33°56' E 134°56'1017.6
2015-Aug-27 10:34N 34°06' E 134°57'1110.8
2015-Aug-27 09:33N 34°16' E 134°59'1615.5
2015-Aug-27 08:31N 34°30' E 135°09'1310.6
2015-Aug-27 07:15N 34°41' E 135°17'0 0.1
2015-Aug-27 03:25N 34°42' E 135°17'0 0.0
2015-Aug-27 02:25N 34°42' E 135°17'0 0.0
2015-Aug-27 01:31N 34°42' E 135°17'0 0.0
2015-Aug-27 00:31N 34°42' E 135°17'0 0.0
2015-Aug-26 23:31N 34°42' E 135°17'0 0.0
2015-Aug-26 22:31N 34°42' E 135°17'4 4.3
2015-Aug-26 21:33N 34°38' E 135°19'1313.0
2015-Aug-26 20:34N 34°27' E 135°10'1615.9
2015-Aug-26 19:33N 34°13' E 134°60'7 6.9
2015-Aug-26 18:33N 34°06' E 134°60'1010.4
2015-Aug-26 17:33N 33°56' E 134°60'  
2015-Aug-23 12:33N 34°54' E 139°38'1817.8
2015-Aug-23 11:34N 35°11' E 139°46'1111.3
2015-Aug-23 10:33N 35°22' E 139°42'6 5.5
2015-Aug-23 09:29N 35°27' E 139°41'0 0.0
2015-Aug-23 08:32N 35°27' E 139°41'0 0.0
2015-Aug-23 07:32N 35°27' E 139°41'0 0.0
2015-Aug-23 06:32N 35°27' E 139°41'0 0.0
2015-Aug-23 05:32N 35°27' E 139°41'2 1.8
2015-Aug-23 04:33N 35°26' E 139°42'8 7.6
2015-Aug-23 03:33N 35°19' E 139°39'0 0.3
2015-Aug-23 02:33N 35°19' E 139°39'0 0.0
2015-Aug-23 01:33N 35°19' E 139°39'0 0.0
2015-Aug-23 00:33N 35°19' E 139°39'0 0.0
2015-Aug-22 23:33N 35°19' E 139°39'0 0.0
2015-Aug-22 22:33N 35°19' E 139°39'5 5.3
2015-Aug-22 21:33N 35°17' E 139°45'1110.7
2015-Aug-22 20:33N 35°07' E 139°46'1212.2
2015-Aug-22 19:33N 34°55' E 139°41'1212.3
2015-Aug-22 18:33N 34°45' E 139°34'1712.3
2015-Aug-22 17:11N 34°36' E 139°16'913.7
2015-Aug-22 16:32N 34°33' E 139°06'  

Dump ship's entire track history